Partly Cloudy Current Weather (METAR) For Cancun Airport

All times on the weather descriptions are local

Observed at 13:47 - (45 mins ago)

Partly Cloudy

32°C

Partly Cloudy
Clouds: Scattered Clouds at 1,500ft
Wind: 130° at 07 knots
Visibility: 7 statute miles
QNH:
Dew Point: 24°C
Runway in Use: Runway 12

Sunrise Today: 06:34
Sunset Today: 18:49

Forecast Weather (TAF) For Cancun Airport

Issued at 19:00 - (13 days ago)


Runway in Use: Unable to determine, wind is clam

Forecast valid until 19:00 on Monday

METAR/TAF RAW METAR / TAF

MMUN 171847Z 13007KT 7SM SCT015 32/24 A2993 RMK 8/100 MDT CU CI TCU/N

Weather Widget

Put weather from any of our airports on your website with our weather widget.

Find Another Search

Airport Search


Please Wait Please Wait - Loading
Close
Close

Login

Username:

Password:

Remember Me:

Remember me on this computer

Forgotten your password? Get a reset password sent to your registered e-mail address

Close

User Private Message

Subject:

Message: